Time;durP1;ratioP1;P1;durP2;ratioP2;P2;SDS_P1;SDS_P2;PMS_P1;PMS_P2;Temp;Humidity;BMP_temperature;BMP_pressure;BME280_temperature;BME280_humidity;BME280_pressure;Samples;Min_cycle;Max_cycle;Signal;HPM_P1;HPM_P2
2021/05/20 00:00:01;;;;;;;3.83;2.80;;;13.50;99.90;;;;;;5054260;28;20505;-51
2021/05/20 00:02:27;;;;;;;3.73;2.57;;;13.50;99.90;;;;;;5054235;28;20444;-47
2021/05/20 00:04:53;;;;;;;4.70;3.20;;;13.50;99.90;;;;;;5054195;28;21134;-50
2021/05/20 00:07:20;;;;;;;3.23;2.70;;;13.50;99.90;;;;;;5054238;28;20458;-45
2021/05/20 00:09:46;;;;;;;4.37;3.80;;;13.50;99.90;;;;;;5044981;28;20451;-46
2021/05/20 00:12:12;;;;;;;6.50;2.93;;;13.40;99.90;;;;;;5043654;28;20457;-51
2021/05/20 00:14:39;;;;;;;6.50;2.80;;;13.40;99.90;;;;;;5042039;28;20434;-46
2021/05/20 00:17:05;;;;;;;3.83;3.47;;;13.40;99.90;;;;;;5042510;27;20432;-53
2021/05/20 00:19:31;;;;;;;3.70;3.27;;;13.40;99.90;;;;;;5039123;28;20489;-48
2021/05/20 00:21:59;;;;;;;4.37;2.60;;;13.40;99.90;;;;;;5048496;28;20501;-51
2021/05/20 00:24:26;;;;;;;5.10;3.13;;;13.30;99.90;;;;;;5039524;28;20472;-47
2021/05/20 00:26:55;;;;;;;4.43;3.33;;;13.40;99.90;;;;;;5057812;27;20910;-53
2021/05/20 00:29:21;;;;;;;4.00;3.47;;;13.40;99.90;;;;;;5035283;28;20500;-48
2021/05/20 00:31:48;;;;;;;3.13;2.83;;;13.40;99.90;;;;;;5051558;27;20928;-46
2021/05/20 00:34:14;;;;;;;3.03;2.73;;;13.40;99.90;;;;;;5048574;27;20753;-49
2021/05/20 00:36:40;;;;;;;3.73;2.90;;;13.30;99.90;;;;;;5053437;28;21225;-51
2021/05/20 00:39:06;;;;;;;4.07;2.87;;;13.30;99.90;;;;;;5043409;28;20443;-51
2021/05/20 00:41:33;;;;;;;4.37;3.57;;;13.40;99.90;;;;;;5044938;28;20440;-49
2021/05/20 00:44:02;;;;;;;3.63;2.90;;;13.40;99.90;;;;;;5045029;27;20443;-50
2021/05/20 00:46:28;;;;;;;3.73;3.07;;;13.40;99.90;;;;;;5053986;28;20491;-51
2021/05/20 00:48:54;;;;;;;3.33;2.67;;;13.40;99.90;;;;;;5064948;28;20479;-48
2021/05/20 00:51:20;;;;;;;3.53;3.07;;;13.30;99.90;;;;;;5049073;28;20439;-48
2021/05/20 00:53:50;;;;;;;4.20;3.40;;;13.20;99.90;;;;;;5065219;28;20956;-52
2021/05/20 00:56:17;;;;;;;3.07;2.20;;;13.10;99.90;;;;;;5047053;28;20850;-48
2021/05/20 00:58:45;;;;;;;5.30;2.93;;;13.10;99.90;;;;;;5051522;28;20437;-52
2021/05/20 01:01:12;;;;;;;3.10;2.80;;;13.10;99.90;;;;;;5057732;28;20957;-50
2021/05/20 01:03:39;;;;;;;3.33;2.77;;;13.10;99.90;;;;;;5075859;28;20450;-49
2021/05/20 01:06:05;;;;;;;4.03;2.70;;;13.10;99.90;;;;;;5071732;28;20454;-51
2021/05/20 01:08:32;;;;;;;4.43;2.77;;;13.10;99.90;;;;;;5057901;28;20470;-50
2021/05/20 01:10:59;;;;;;;2.57;2.37;;;13.10;99.90;;;;;;5052618;27;20462;-48
2021/05/20 01:13:26;;;;;;;2.90;2.50;;;13.10;99.90;;;;;;5055856;28;20440;-52
2021/05/20 01:15:53;;;;;;;3.03;2.73;;;13.10;99.90;;;;;;5062124;27;20442;-46
2021/05/20 01:18:19;;;;;;;2.90;2.50;;;13.10;99.90;;;;;;5073052;28;20454;-50
2021/05/20 01:20:46;;;;;;;3.63;3.33;;;13.20;99.90;;;;;;5072815;28;20438;-51
2021/05/20 01:23:14;;;;;;;4.10;3.00;;;13.20;99.90;;;;;;5073655;28;20752;-48
2021/05/20 01:25:42;;;;;;;3.83;2.77;;;13.20;99.90;;;;;;5074464;27;20486;-49
2021/05/20 01:28:10;;;;;;;4.63;3.23;;;13.10;99.90;;;;;;5074933;28;20563;-49
2021/05/20 01:30:39;;;;;;;4.37;2.30;;;13.10;99.90;;;;;;5074168;28;20499;-51
2021/05/20 01:33:05;;;;;;;3.30;3.00;;;13.10;99.90;;;;;;5061591;27;20448;-53
2021/05/20 01:35:32;;;;;;;5.23;2.60;;;13.10;99.90;;;;;;5058325;28;20839;-47
2021/05/20 01:40:52;;;;;;;3.20;2.90;;;13.00;99.90;;;;;;5034393;28;20428;-51
2021/05/20 01:43:22;;;;;;;5.33;2.80;;;12.90;99.90;;;;;;5034509;28;20850;-46
2021/05/20 01:45:51;;;;;;;2.70;2.50;;;12.80;99.90;;;;;;5034736;28;20436;-46
2021/05/20 01:48:17;;;;;;;4.33;2.50;;;12.80;99.90;;;;;;5035226;28;20476;-46
2021/05/20 01:50:43;;;;;;;2.53;2.10;;;12.80;99.90;;;;;;5035487;28;20478;-45
2021/05/20 01:53:10;;;;;;;2.37;2.10;;;12.80;99.90;;;;;;5035623;28;20456;-48
2021/05/20 01:55:36;;;;;;;2.97;2.33;;;12.80;99.90;;;;;;5037707;28;20448;-53
2021/05/20 01:58:02;;;;;;;2.90;2.07;;;12.70;99.90;;;;;;5042246;27;20458;-54
2021/05/20 02:00:28;;;;;;;2.37;2.17;;;12.80;99.90;;;;;;5066973;28;20434;-48
2021/05/20 02:02:54;;;;;;;4.63;2.63;;;12.90;99.90;;;;;;5058389;28;20454;-51
2021/05/20 02:05:21;;;;;;;2.80;2.20;;;12.70;99.90;;;;;;5057223;28;20452;-51
2021/05/20 02:07:47;;;;;;;4.17;3.00;;;12.70;99.90;;;;;;5059030;28;21109;-49
2021/05/20 02:10:14;;;;;;;2.73;2.00;;;12.70;99.90;;;;;;5047088;28;20457;-48
2021/05/20 02:12:40;;;;;;;2.00;1.80;;;12.70;99.90;;;;;;5051623;28;20501;-48
2021/05/20 02:15:07;;;;;;;3.70;2.43;;;12.80;99.90;;;;;;5049279;28;20435;-46
2021/05/20 02:17:36;;;;;;;3.07;2.50;;;12.80;99.90;;;;;;5060281;28;20750;-51
2021/05/20 02:20:06;;;;;;;2.57;2.37;;;12.80;99.90;;;;;;5048455;28;20547;-51
2021/05/20 02:22:32;;;;;;;3.73;2.73;;;12.80;99.90;;;;;;5078195;27;20448;-53
2021/05/20 02:24:58;;;;;;;3.57;3.27;;;12.80;99.90;;;;;;5059842;28;20478;-53
2021/05/20 02:27:25;;;;;;;2.67;2.47;;;12.70;99.90;;;;;;5052392;28;20458;-47
2021/05/20 02:29:51;;;;;;;2.90;2.30;;;12.70;99.90;;;;;;5058291;28;20442;-45
2021/05/20 02:32:17;;;;;;;4.60;2.70;;;12.60;99.90;;;;;;5053278;28;20429;-48
2021/05/20 02:34:43;;;;;;;3.20;2.90;;;12.60;99.90;;;;;;5047870;28;20463;-48
2021/05/20 02:37:09;;;;;;;2.30;2.10;;;12.60;99.90;;;;;;5052713;28;20434;-46
2021/05/20 02:39:36;;;;;;;4.10;2.77;;;12.60;99.90;;;;;;5052481;28;20491;-45
2021/05/20 02:42:02;;;;;;;2.73;2.00;;;12.70;99.90;;;;;;5052879;28;20461;-47
2021/05/20 02:44:29;;;;;;;2.23;1.90;;;12.60;99.90;;;;;;5059461;28;20470;-51
2021/05/20 02:46:55;;;;;;;2.33;2.00;;;12.60;99.90;;;;;;5056363;28;20430;-48
2021/05/20 02:49:22;;;;;;;3.50;2.33;;;12.60;99.90;;;;;;5057764;28;20486;-53
2021/05/20 02:51:48;;;;;;;6.20;2.47;;;12.50;99.90;;;;;;5058020;28;20450;-53
2021/05/20 02:54:14;;;;;;;3.70;2.10;;;12.50;99.90;;;;;;5053517;28;20444;-51
2021/05/20 02:56:40;;;;;;;4.33;2.43;;;12.50;99.90;;;;;;5047467;28;20438;-46
2021/05/20 02:59:09;;;;;;;2.50;2.30;;;12.50;99.90;;;;;;5053509;28;20800;-48
2021/05/20 03:01:41;;;;;;;2.90;2.30;;;12.50;99.90;;;;;;5056369;28;20437;-47
2021/05/20 03:04:07;;;;;;;2.53;2.33;;;12.50;99.90;;;;;;5053666;28;20927;-48
2021/05/20 03:06:34;;;;;;;2.63;2.37;;;12.50;99.90;;;;;;5054020;28;20823;-50
2021/05/20 03:09:00;;;;;;;3.83;2.67;;;12.50;99.90;;;;;;5059114;28;20479;-47
2021/05/20 03:11:28;;;;;;;2.47;2.27;;;12.50;99.90;;;;;;5059306;28;20452;-53
2021/05/20 03:13:54;;;;;;;3.10;2.37;;;12.40;99.90;;;;;;5051461;28;20448;-46
2021/05/20 03:16:20;;;;;;;4.20;1.97;;;12.50;99.90;;;;;;5057382;28;20452;-48
2021/05/20 03:18:47;;;;;;;2.47;2.20;;;12.40;99.90;;;;;;5053277;28;20431;-51
2021/05/20 03:21:14;;;;;;;2.90;2.47;;;12.40;99.90;;;;;;5050384;28;20444;-45
2021/05/20 03:23:40;;;;;;;3.70;2.67;;;12.40;99.90;;;;;;5058715;28;20910;-47
2021/05/20 03:26:06;;;;;;;3.00;2.30;;;12.50;99.90;;;;;;5057822;28;20454;-46
2021/05/20 03:28:32;;;;;;;3.53;3.10;;;12.50;99.90;;;;;;5063345;28;20478;-48
2021/05/20 03:30:58;;;;;;;7.03;2.30;;;12.40;99.90;;;;;;5057245;28;20460;-45
2021/05/20 03:33:25;;;;;;;5.30;2.97;;;12.40;99.90;;;;;;5065398;28;20794;-51
2021/05/20 03:35:52;;;;;;;3.43;3.13;;;12.40;99.90;;;;;;5075699;28;20515;-49
2021/05/20 03:38:18;;;;;;;3.17;2.80;;;12.30;99.90;;;;;;5076051;28;20439;-48
2021/05/20 03:40:45;;;;;;;3.10;2.80;;;12.40;99.90;;;;;;5076251;28;20478;-47
2021/05/20 03:43:11;;;;;;;4.37;3.07;;;12.40;99.90;;;;;;5075209;28;20647;-48
2021/05/20 03:45:37;;;;;;;4.07;2.63;;;12.40;99.90;;;;;;5074880;28;20450;-48
2021/05/20 03:48:05;;;;;;;4.33;3.10;;;12.40;99.90;;;;;;5074836;28;20565;-52
2021/05/20 03:50:31;;;;;;;3.03;2.60;;;12.40;99.90;;;;;;5075507;28;20442;-53
2021/05/20 03:52:59;;;;;;;3.40;2.97;;;12.40;99.90;;;;;;5075185;28;20450;-47
2021/05/20 03:55:25;;;;;;;4.37;3.87;;;12.40;99.90;;;;;;5074876;28;20514;-50
2021/05/20 03:57:52;;;;;;;3.60;3.30;;;12.50;99.90;;;;;;5075578;27;20462;-47
2021/05/20 04:00:19;;;;;;;3.77;3.47;;;12.50;99.90;;;;;;5075655;28;20450;-48
2021/05/20 04:02:45;;;;;;;6.03;3.63;;;12.40;99.90;;;;;;5075892;28;20455;-51
2021/05/20 04:05:12;;;;;;;6.60;4.00;;;12.40;99.90;;;;;;5075798;28;20918;-51
2021/05/20 04:07:38;;;;;;;4.70;4.30;;;12.40;99.90;;;;;;5074815;28;20458;-48
2021/05/20 04:10:07;;;;;;;3.90;3.40;;;12.50;99.90;;;;;;5074973;27;20466;-49
2021/05/20 04:12:33;;;;;;;4.80;4.10;;;12.40;99.90;;;;;;5074745;28;20446;-47
2021/05/20 04:14:59;;;;;;;6.73;3.77;;;12.40;99.90;;;;;;5075126;27;20782;-50
2021/05/20 04:17:27;;;;;;;4.50;4.10;;;12.40;99.90;;;;;;5074596;28;20462;-50
2021/05/20 04:19:53;;;;;;;4.27;3.60;;;12.40;99.90;;;;;;5074674;28;20446;-52
2021/05/20 04:22:19;;;;;;;3.80;3.50;;;12.50;99.90;;;;;;5074873;28;20810;-51
2021/05/20 04:24:46;;;;;;;6.00;3.87;;;12.50;99.90;;;;;;5074876;27;20477;-49
2021/05/20 04:27:13;;;;;;;4.57;4.00;;;12.50;99.90;;;;;;5075464;28;20782;-44
2021/05/20 04:29:41;;;;;;;7.93;3.73;;;12.50;99.90;;;;;;5075534;28;20479;-44
2021/05/20 04:32:08;;;;;;;4.20;3.70;;;12.40;99.90;;;;;;5075730;28;20450;-46
2021/05/20 04:34:35;;;;;;;5.83;4.60;;;12.40;99.90;;;;;;5075341;28;20514;-51
2021/05/20 04:37:06;;;;;;;4.23;3.80;;;12.40;99.90;;;;;;5074685;28;20450;-45
2021/05/20 04:39:33;;;;;;;4.83;4.33;;;12.40;99.90;;;;;;5074920;27;20427;-52
2021/05/20 04:41:59;;;;;;;5.47;4.60;;;12.40;99.90;;;;;;5074862;28;20523;-53
2021/05/20 04:44:26;;;;;;;4.80;3.90;;;12.50;99.90;;;;;;5075045;28;20450;-52
2021/05/20 04:46:53;;;;;;;5.53;4.60;;;12.50;99.90;;;;;;5074645;28;20454;-48
2021/05/20 04:49:19;;;;;;;6.83;5.17;;;12.60;99.90;;;;;;5074433;28;20470;-46
2021/05/20 04:51:45;;;;;;;6.87;6.17;;;12.60;99.90;;;;;;5074722;28;20430;-50
2021/05/20 04:54:11;;;;;;;6.00;4.90;;;12.60;99.90;;;;;;5074683;28;20446;-48
2021/05/20 04:56:38;;;;;;;6.00;5.40;;;12.60;99.90;;;;;;5074733;28;20925;-51
2021/05/20 04:59:04;;;;;;;5.70;5.10;;;12.70;99.90;;;;;;5074331;28;20526;-50
2021/05/20 05:01:32;;;;;;;5.80;5.20;;;12.80;99.90;;;;;;5075305;27;20544;-50
2021/05/20 05:03:59;;;;;;;6.40;5.73;;;12.80;99.90;;;;;;5074941;28;21002;-52
2021/05/20 05:06:25;;;;;;;12.10;5.70;;;12.80;99.90;;;;;;5074907;28;20458;-46
2021/05/20 05:08:51;;;;;;;6.83;5.90;;;12.90;99.90;;;;;;5075354;28;20884;-47
2021/05/20 05:11:17;;;;;;;7.27;5.53;;;13.00;99.90;;;;;;5074994;28;20458;-49
2021/05/20 05:13:44;;;;;;;5.73;5.23;;;13.00;99.90;;;;;;5075509;28;20442;-44
2021/05/20 05:16:11;;;;;;;9.03;4.97;;;13.00;99.90;;;;;;5075304;28;20431;-49
2021/05/20 05:18:38;;;;;;;7.60;5.93;;;13.00;99.90;;;;;;5074770;28;20439;-47
2021/05/20 05:21:05;;;;;;;6.40;5.60;;;13.10;99.90;;;;;;5075663;28;20443;-47
2021/05/20 05:23:32;;;;;;;5.50;4.80;;;13.10;99.90;;;;;;5073985;28;20489;-52
2021/05/20 05:25:58;;;;;;;6.10;4.47;;;13.20;99.90;;;;;;5073568;28;20482;-48
2021/05/20 05:28:24;;;;;;;7.80;5.63;;;13.20;99.90;;;;;;5075360;28;20489;-49
2021/05/20 05:30:50;;;;;;;6.47;4.77;;;13.30;99.90;;;;;;5078155;28;20518;-49
2021/05/20 05:33:18;;;;;;;6.47;5.43;;;13.40;99.90;;;;;;5077685;28;20450;-48
2021/05/20 05:35:45;;;;;;;5.83;5.27;;;13.40;99.90;;;;;;5077836;28;20447;-51
2021/05/20 05:38:11;;;;;;;8.60;5.77;;;13.50;99.90;;;;;;5077808;28;20949;-46
2021/05/20 05:40:37;;;;;;;7.03;5.87;;;13.50;99.90;;;;;;5077051;28;20957;-45
2021/05/20 05:43:03;;;;;;;6.23;5.07;;;13.50;99.90;;;;;;5076714;28;20446;-48
2021/05/20 05:45:32;;;;;;;5.63;5.03;;;13.50;99.90;;;;;;5076704;28;20438;-50
2021/05/20 05:47:58;;;;;;;5.60;4.83;;;13.60;99.90;;;;;;5076222;28;20481;-47
2021/05/20 05:50:25;;;;;;;6.90;5.33;;;13.60;99.90;;;;;;5076555;28;20910;-47
2021/05/20 05:52:52;;;;;;;15.30;5.70;;;13.60;99.90;;;;;;5076335;28;20450;-46
2021/05/20 05:55:18;;;;;;;6.70;4.90;;;13.60;99.90;;;;;;5076364;28;20487;-46
2021/05/20 05:57:44;;;;;;;5.90;5.30;;;13.60;99.90;;;;;;5076170;28;20447;-45
2021/05/20 06:00:11;;;;;;;6.80;6.13;;;13.70;99.90;;;;;;5076669;28;20450;-49
2021/05/20 06:02:37;;;;;;;8.93;5.40;;;13.70;99.90;;;;;;5076275;28;20462;-47
2021/05/20 06:05:04;;;;;;;5.80;5.20;;;13.80;99.90;;;;;;5076196;28;20438;-45
2021/05/20 06:07:35;;;;;;;11.07;5.13;;;13.80;99.90;;;;;;5076301;27;20519;-46
2021/05/20 06:10:03;;;;;;;5.77;5.27;;;13.80;99.90;;;;;;5076286;28;20529;-47
2021/05/20 06:12:29;;;;;;;6.60;5.77;;;13.80;99.90;;;;;;5076217;28;20507;-48
2021/05/20 06:14:55;;;;;;;9.00;5.90;;;13.80;99.90;;;;;;5076258;28;20442;-44
2021/05/20 06:17:21;;;;;;;9.53;6.70;;;13.70;99.90;;;;;;5076240;28;20514;-47
2021/05/20 06:19:47;;;;;;;6.17;5.03;;;13.80;99.90;;;;;;5076013;28;20443;-46
2021/05/20 06:22:13;;;;;;;8.80;5.20;;;13.80;99.90;;;;;;5075973;28;20740;-49
2021/05/20 06:24:40;;;;;;;6.40;4.53;;;13.80;99.90;;;;;;5076292;28;20466;-45
2021/05/20 06:27:07;;;;;;;12.03;5.10;;;13.90;99.90;;;;;;5061668;28;20802;-46
2021/05/20 06:29:33;;;;;;;6.43;4.50;;;14.10;99.90;;;;;;5056340;28;20685;-44
2021/05/20 06:31:59;;;;;;;9.00;6.73;;;14.20;99.90;;;;;;5053190;28;20765;-48
2021/05/20 06:34:26;;;;;;;8.80;5.43;;;14.30;99.90;;;;;;5043965;28;20452;-45
2021/05/20 06:36:56;;;;;;;6.57;5.87;;;14.40;99.90;;;;;;5054401;28;20911;-52
2021/05/20 06:39:22;;;;;;;6.00;5.23;;;14.40;99.90;;;;;;5033737;28;20893;-45
2021/05/20 06:41:48;;;;;;;9.20;5.20;;;14.50;99.90;;;;;;5039930;28;20746;-45
2021/05/20 06:44:15;;;;;;;8.60;5.00;;;14.40;99.90;;;;;;5033647;28;20464;-43
2021/05/20 06:46:41;;;;;;;4.70;4.30;;;14.40;99.90;;;;;;5049773;27;20454;-43
2021/05/20 06:49:08;;;;;;;6.70;5.60;;;14.50;99.90;;;;;;5052845;28;20535;-48
2021/05/20 06:51:34;;;;;;;7.07;5.33;;;14.60;99.90;;;;;;5048521;28;20448;-49
2021/05/20 06:54:00;;;;;;;5.57;5.07;;;14.80;99.90;;;;;;5052472;28;20447;-43
2021/05/20 06:56:29;;;;;;;6.37;5.03;;;14.80;99.90;;;;;;5052787;28;20477;-48
2021/05/20 07:01:36;;;;;;;8.17;5.70;;;14.60;99.90;;;;;;5019977;28;20510;-43
2021/05/20 07:04:03;;;;;;;10.83;5.60;;;14.50;99.90;;;;;;5053250;28;20443;-46
2021/05/20 07:06:29;;;;;;;6.13;5.50;;;14.70;99.90;;;;;;5052722;28;20465;-44
2021/05/20 07:08:55;;;;;;;7.57;5.63;;;14.80;99.90;;;;;;5054463;28;20486;-43
2021/05/20 07:11:22;;;;;;;5.37;4.87;;;15.10;99.90;;;;;;5055319;28;20459;-45
2021/05/20 07:13:48;;;;;;;5.60;4.87;;;15.30;99.90;;;;;;5052039;28;20451;-47
2021/05/20 07:16:14;;;;;;;4.67;4.27;;;15.60;99.90;;;;;;5052031;28;20455;-44
2021/05/20 07:18:41;;;;;;;6.77;4.93;;;15.90;99.90;;;;;;5052174;28;20463;-45
2021/05/20 07:21:07;;;;;;;7.33;4.70;;;16.50;99.90;;;;;;5051645;28;20768;-46
2021/05/20 07:23:33;;;;;;;4.50;4.10;;;17.10;99.90;;;;;;5051074;28;20447;-46
2021/05/20 07:25:59;;;;;;;4.80;4.10;;;17.40;99.90;;;;;;5051287;28;20490;-51
2021/05/20 07:28:25;;;;;;;6.60;4.93;;;17.50;99.90;;;;;;5052114;28;20483;-49
2021/05/20 07:30:52;;;;;;;5.30;3.70;;;17.60;99.90;;;;;;5051940;28;20451;-47
2021/05/20 07:33:18;;;;;;;3.63;3.27;;;17.50;99.90;;;;;;5050854;28;20443;-47
2021/05/20 07:35:45;;;;;;;3.30;3.00;;;18.50;99.90;;;;;;5046768;27;20456;-46
2021/05/20 07:38:11;;;;;;;4.40;3.27;;;19.30;99.90;;;;;;5051460;28;20827;-44
2021/05/20 07:40:38;;;;;;;4.27;2.90;;;19.30;99.90;;;;;;5051283;27;20511;-47
2021/05/20 07:43:04;;;;;;;6.00;2.97;;;19.20;99.90;;;;;;5050543;28;20956;-45
2021/05/20 07:45:30;;;;;;;3.97;2.67;;;19.00;99.90;;;;;;5050781;28;20448;-47
2021/05/20 07:47:56;;;;;;;6.73;3.40;;;18.90;99.90;;;;;;5050774;28;20454;-47
2021/05/20 07:50:23;;;;;;;5.13;3.10;;;18.60;99.90;;;;;;5050311;28;20447;-46
2021/05/20 07:52:50;;;;;;;3.67;3.00;;;18.30;99.90;;;;;;5050096;28;20459;-48
2021/05/20 07:55:17;;;;;;;3.10;2.63;;;18.20;99.90;;;;;;5050570;28;20934;-49
2021/05/20 07:57:43;;;;;;;3.33;2.77;;;18.00;99.90;;;;;;5050972;27;20443;-49
2021/05/20 08:00:12;;;;;;;3.20;2.53;;;17.60;99.90;;;;;;5050827;28;20926;-51
2021/05/20 08:02:48;;;;;;;3.10;2.77;;;17.20;99.90;;;;;;5050203;27;20447;-50
2021/05/20 08:05:22;;;;;;;3.73;2.50;;;17.00;99.90;;;;;;5051087;28;20459;-46
2021/05/20 08:07:54;;;;;;;3.80;2.33;;;17.30;99.90;;;;;;5050578;28;20458;-48
2021/05/20 08:10:47;;;;;;;4.90;3.03;;;18.50;99.90;;;;;;5046798;28;20464;-47
2021/05/20 08:13:14;;;;;;;5.00;2.90;;;19.20;99.90;;;;;;5045438;28;20985;-50
2021/05/20 08:15:40;;;;;;;6.03;2.93;;;19.40;99.90;;;;;;5050758;28;20508;-47
2021/05/20 08:18:07;;;;;;;3.60;2.67;;;19.70;99.90;;;;;;5050416;28;20459;-50
2021/05/20 08:20:34;;;;;;;3.83;2.40;;;19.70;99.90;;;;;;5050814;28;20467;-50
2021/05/20 08:23:01;;;;;;;3.70;2.67;;;19.50;99.90;;;;;;5049538;28;20536;-47
2021/05/20 08:25:28;;;;;;;6.20;2.17;;;19.30;99.90;;;;;;5050104;28;20543;-44
2021/05/20 08:27:54;;;;;;;2.70;2.50;;;19.50;99.60;;;;;;5050062;27;20451;-49
2021/05/20 08:30:21;;;;;;;3.57;2.47;;;19.80;98.70;;;;;;5050367;28;20511;-46
2021/05/20 08:32:48;;;;;;;5.47;2.43;;;20.30;97.20;;;;;;5049514;28;20454;-47
2021/05/20 08:35:16;;;;;;;5.83;2.47;;;20.40;96.80;;;;;;5050370;27;20507;-49
2021/05/20 08:37:42;;;;;;;3.40;2.00;;;20.10;96.00;;;;;;5049453;28;20443;-46
2021/05/20 08:40:12;;;;;;;4.60;2.40;;;19.20;98.00;;;;;;5049176;28;20451;-47
2021/05/20 08:42:39;;;;;;;3.43;2.70;;;19.00;99.30;;;;;;5045377;28;20457;-53
2021/05/20 08:45:10;;;;;;;2.10;1.90;;;19.50;99.90;;;;;;5050314;28;20987;-50
2021/05/20 08:47:37;;;;;;;2.80;2.00;;;19.40;96.90;;;;;;5050217;28;20744;-47
2021/05/20 08:50:05;;;;;;;2.47;2.27;;;19.10;97.70;;;;;;5045106;28;20497;-47
2021/05/20 08:52:32;;;;;;;3.10;2.47;;;19.10;98.10;;;;;;5049017;28;20455;-46
2021/05/20 08:54:58;;;;;;;2.60;1.50;;;19.80;97.30;;;;;;5049853;28;20458;-46
2021/05/20 08:57:27;;;;;;;3.20;1.93;;;21.10;94.00;;;;;;5049985;28;20527;-49
2021/05/20 08:59:54;;;;;;;2.10;1.90;;;21.90;90.60;;;;;;5045296;28;20955;-46
2021/05/20 09:02:27;;;;;;;2.27;2.03;;;22.10;88.80;;;;;;5050682;28;20546;-44
2021/05/20 09:04:59;;;;;;;7.30;2.17;;;21.70;89.20;;;;;;5053678;27;20539;-45
2021/05/20 09:07:33;;;;;;;2.10;1.80;;;21.50;89.50;;;;;;5050029;28;20607;-49
2021/05/20 09:10:14;;;;;;;2.47;2.10;;;20.80;91.00;;;;;;5053461;28;20509;-47
2021/05/20 09:12:42;;;;;;;2.00;1.90;;;19.90;90.40;;;;;;5052793;28;20443;-47
2021/05/20 09:15:22;;;;;;;3.80;1.80;;;19.70;91.20;;;;;;5053606;28;20459;-48
2021/05/20 09:17:50;;;;;;;2.00;1.80;;;20.70;90.00;;;;;;5053164;28;20935;-45
2021/05/20 09:20:17;;;;;;;2.57;2.07;;;20.70;88.50;;;;;;5053544;28;20499;-47
2021/05/20 09:22:44;;;;;;;2.37;2.13;;;20.90;90.40;;;;;;5052408;28;20453;-47
2021/05/20 09:25:13;;;;;;;3.10;1.90;;;21.70;87.40;;;;;;5052917;27;20569;-47
2021/05/20 09:27:41;;;;;;;1.90;1.43;;;22.40;79.20;;;;;;5053670;28;20462;-46
2021/05/20 09:30:12;;;;;;;1.73;1.63;;;23.20;78.30;;;;;;5054079;28;20570;-47
2021/05/20 09:32:40;;;;;;;1.70;1.50;;;23.90;72.70;;;;;;5054139;28;20530;-46
2021/05/20 09:35:07;;;;;;;2.20;1.60;;;24.30;69.20;;;;;;5054016;28;20451;-46
2021/05/20 09:37:43;;;;;;;2.10;1.57;;;24.20;66.10;;;;;;5053130;28;20466;-46
2021/05/20 09:40:11;;;;;;;2.30;1.77;;;23.40;65.40;;;;;;5053085;28;20442;-45
2021/05/20 09:42:37;;;;;;;2.63;2.30;;;22.80;67.40;;;;;;5052190;28;20466;-48
2021/05/20 09:45:07;;;;;;;2.23;1.70;;;22.60;69.50;;;;;;5053201;27;20463;-46
2021/05/20 09:47:34;;;;;;;5.03;2.10;;;22.70;69.70;;;;;;5052825;28;20431;-50
2021/05/20 09:50:04;;;;;;;2.73;1.70;;;22.60;67.20;;;;;;5052936;27;20848;-46
2021/05/20 09:52:31;;;;;;;2.50;1.83;;;22.40;68.70;;;;;;5052276;28;20458;-50
2021/05/20 09:54:57;;;;;;;2.10;1.77;;;23.00;68.70;;;;;;5052965;28;20555;-49
2021/05/20 09:57:32;;;;;;;2.43;1.93;;;23.10;66.70;;;;;;5052368;28;20450;-47
2021/05/20 10:00:07;;;;;;;1.97;1.70;;;22.90;66.40;;;;;;5054053;27;20465;-49
2021/05/20 10:02:35;;;;;;;4.20;2.00;;;23.20;65.70;;;;;;5055254;27;20491;-48
2021/05/20 10:05:23;;;;;;;3.10;1.80;;;23.50;64.80;;;;;;5049440;28;20504;-46
2021/05/20 10:07:50;;;;;;;2.10;1.90;;;22.90;63.80;;;;;;5050438;27;20458;-45
2021/05/20 10:10:17;;;;;;;1.90;1.80;;;22.80;64.30;;;;;;5051002;27;20617;-51
2021/05/20 10:12:45;;;;;;;3.00;1.70;;;23.00;62.50;;;;;;5053351;27;20560;-50
2021/05/20 10:15:14;;;;;;;2.93;2.03;;;22.80;61.50;;;;;;5044433;28;20471;-45
2021/05/20 10:17:41;;;;;;;2.80;2.17;;;23.00;63.00;;;;;;5049016;27;20436;-49
2021/05/20 10:20:11;;;;;;;4.20;2.20;;;23.30;61.80;;;;;;5043207;28;20488;-46
2021/05/20 10:22:38;;;;;;;5.20;2.10;;;22.80;62.70;;;;;;5048551;27;20439;-47
2021/05/20 10:25:05;;;;;;;3.50;2.17;;;22.50;64.90;;;;;;5048538;28;20478;-48
2021/05/20 10:27:32;;;;;;;3.47;2.43;;;22.80;64.10;;;;;;5051647;28;20451;-48
2021/05/20 10:30:00;;;;;;;3.60;2.10;;;23.20;61.40;;;;;;5053623;28;20494;-48
2021/05/20 10:32:26;;;;;;;2.63;2.17;;;23.40;61.70;;;;;;5053453;28;20451;-46
2021/05/20 10:35:01;;;;;;;2.40;2.13;;;23.00;60.20;;;;;;5052347;27;20455;-47
2021/05/20 10:37:36;;;;;;;6.33;3.10;;;22.80;61.80;;;;;;5052389;28;21041;-44
2021/05/20 10:40:04;;;;;;;3.00;2.70;;;22.80;63.00;;;;;;5051849;28;20446;-47
2021/05/20 10:42:39;;;;;;;3.33;2.03;;;23.00;62.60;;;;;;5055476;28;20471;-47
2021/05/20 10:45:19;;;;;;;2.80;2.30;;;22.60;60.70;;;;;;5051981;28;20506;-50
2021/05/20 10:48:17;;;;;;;5.27;2.90;;;22.50;60.70;;;;;;5052754;28;20486;-47
2021/05/20 10:51:15;;;;;;;2.60;2.40;;;21.80;61.70;;;;;;5050039;28;21291;-48
2021/05/20 10:54:01;;;;;;;2.80;1.90;;;21.20;64.10;;;;;;5048931;28;20462;-45
2021/05/20 10:56:57;;;;;;;4.70;1.87;;;21.10;64.50;;;;;;5049848;27;20442;-46
2021/05/20 10:59:42;;;;;;;2.63;2.37;;;21.10;63.10;;;;;;5046266;28;20431;-47
2021/05/20 11:02:54;;;;;;;2.77;2.00;;;21.20;64.00;;;;;;5051261;28;20764;-50
2021/05/20 11:05:55;;;;;;;3.20;1.67;;;20.70;64.90;;;;;;5050605;28;20446;-48
2021/05/20 11:08:58;;;;;;;2.90;1.60;;;20.40;63.00;;;;;;5051468;27;20458;-46
2021/05/20 11:11:59;;;;;;;1.70;1.60;;;20.50;64.20;;;;;;5048719;28;20449;-47
2021/05/20 11:14:48;;;;;;;2.50;1.90;;;20.40;64.10;;;;;;5056178;27;20526;-44
2021/05/20 11:17:36;;;;;;;3.33;2.30;;;20.10;65.90;;;;;;5056460;27;21314;-47
2021/05/20 11:20:40;;;;;;;5.57;4.03;;;19.80;67.90;;;;;;5052940;27;20475;-50
2021/05/20 11:26:18;;;;;;;2.97;2.50;;;20.20;68.10;;;;;;5820007;22;20519;-48
2021/05/20 11:28:50;;;;;;;2.57;2.00;;;20.30;66.90;;;;;;5011272;28;20484;-47
2021/05/20 11:31:17;;;;;;;6.27;2.40;;;20.20;67.30;;;;;;5020352;28;20453;-43
2021/05/20 11:33:51;;;;;;;2.00;1.80;;;20.50;69.60;;;;;;5015822;28;20441;-44
2021/05/20 11:36:18;;;;;;;2.50;2.27;;;20.50;66.70;;;;;;5018761;28;20775;-46
2021/05/20 11:38:58;;;;;;;2.27;1.90;;;20.60;64.60;;;;;;5021120;28;20537;-46
2021/05/20 11:41:26;;;;;;;5.33;2.20;;;20.50;64.90;;;;;;5019157;28;20803;-47
2021/05/20 11:44:11;;;;;;;3.83;2.07;;;20.50;65.50;;;;;;5017182;28;20825;-45
2021/05/20 11:46:38;;;;;;;3.53;2.03;;;20.10;65.50;;;;;;5018835;28;20452;-50
2021/05/20 11:49:06;;;;;;;3.33;1.93;;;19.60;68.00;;;;;;5019937;28;20473;-45
2021/05/20 11:51:44;;;;;;;1.90;1.70;;;19.60;69.40;;;;;;5017311;28;20969;-47
2021/05/20 11:54:13;;;;;;;2.80;2.30;;;19.60;67.50;;;;;;5015280;28;20471;-49
2021/05/20 11:56:47;;;;;;;4.27;2.03;;;19.60;67.40;;;;;;5015536;28;20919;-52
2021/05/20 11:59:14;;;;;;;2.63;2.40;;;19.80;70.20;;;;;;5019112;28;20441;-47
2021/05/20 12:01:43;;;;;;;3.43;2.30;;;19.90;70.70;;;;;;5020112;28;20445;-50
2021/05/20 12:04:09;;;;;;;2.57;2.27;;;19.90;69.40;;;;;;5015032;28;20449;-47
2021/05/20 12:06:37;;;;;;;1.97;1.77;;;19.80;69.70;;;;;;5016344;28;20956;-47
2021/05/20 12:09:12;;;;;;;1.50;1.40;;;19.60;66.80;;;;;;5017923;28;20473;-48
2021/05/20 12:11:41;;;;;;;3.03;1.70;;;19.40;66.60;;;;;;5017878;28;20484;-49
2021/05/20 12:14:38;;;;;;;2.03;1.60;;;19.30;67.80;;;;;;5011518;28;20448;-46
2021/05/20 12:17:07;;;;;;;1.83;1.53;;;19.20;67.90;;;;;;4950301;28;20442;-49
2021/05/20 12:19:38;;;;;;;2.30;1.30;;;19.20;69.50;;;;;;4997703;28;20537;-51
2021/05/20 12:22:11;;;;;;;1.77;1.20;;;19.40;68.30;;;;;;5011641;28;20445;-45
2021/05/20 12:24:40;;;;;;;1.43;1.33;;;19.50;66.10;;;;;;5009066;28;20441;-50
2021/05/20 12:27:09;;;;;;;1.93;1.50;;;19.50;67.00;;;;;;5015595;28;20503;-50
2021/05/20 12:29:38;;;;;;;4.03;1.80;;;19.60;67.70;;;;;;5017496;28;21035;-52
2021/05/20 12:32:06;;;;;;;1.30;1.20;;;19.70;66.80;;;;;;5015943;28;20490;-48
2021/05/20 12:34:33;;;;;;;1.10;0.90;;;19.60;66.60;;;;;;5014593;28;20521;-48
2021/05/20 12:37:04;;;;;;;5.60;1.93;;;19.50;67.30;;;;;;5015602;28;20464;-50
2021/05/20 12:39:31;;;;;;;2.40;1.60;;;19.30;66.70;;;;;;5021436;28;20445;-50
2021/05/20 12:41:58;;;;;;;1.90;1.40;;;19.10;67.90;;;;;;5022050;28;20456;-52
2021/05/20 12:44:26;;;;;;;1.70;1.60;;;19.10;66.60;;;;;;5016419;28;20911;-50
2021/05/20 12:46:53;;;;;;;2.87;2.07;;;19.00;65.80;;;;;;5019258;28;20455;-48
2021/05/20 12:49:20;;;;;;;2.00;1.43;;;18.80;67.00;;;;;;5017447;28;20495;-49
2021/05/20 12:51:56;;;;;;;1.53;1.43;;;18.70;66.70;;;;;;5009373;28;20453;-49
2021/05/20 12:54:27;;;;;;;2.40;1.87;;;18.90;68.40;;;;;;5015024;28;20593;-48
2021/05/20 12:57:03;;;;;;;2.67;2.00;;;19.10;66.20;;;;;;5011570;28;20445;-49
2021/05/20 12:59:38;;;;;;;2.83;1.40;;;19.10;65.60;;;;;;5011355;28;20429;-46
2021/05/20 13:02:09;;;;;;;2.10;1.70;;;18.80;65.20;;;;;;5013245;28;20452;-45